sensor_id;sensor_type;location;lat;lon;timestamp;temperature;humidity
33739;DHT22;20063;51.730;11.110;2022-11-09T00:00:48;14.20;99.90
33739;DHT22;20063;51.730;11.110;2022-11-09T00:03:14;14.20;99.90
33739;DHT22;20063;51.730;11.110;2022-11-09T00:05:39;14.20;99.90
33739;DHT22;20063;51.730;11.110;2022-11-09T00:08:06;14.20;99.90
33739;DHT22;20063;51.730;11.110;2022-11-09T00:10:33;14.20;99.90
33739;DHT22;20063;51.730;11.110;2022-11-09T00:12:59;14.20;99.90
33739;DHT22;20063;51.730;11.110;2022-11-09T00:15:25;14.20;99.90
33739;DHT22;20063;51.730;11.110;2022-11-09T00:17:51;14.20;99.90
33739;DHT22;20063;51.730;11.110;2022-11-09T00:20:16;14.20;99.90
33739;DHT22;20063;51.730;11.110;2022-11-09T00:22:45;14.30;99.90
33739;DHT22;20063;51.730;11.110;2022-11-09T00:25:11;14.20;99.90
33739;DHT22;20063;51.730;11.110;2022-11-09T00:27:36;14.20;99.90
33739;DHT22;20063;51.730;11.110;2022-11-09T00:30:02;14.20;99.90
33739;DHT22;20063;51.730;11.110;2022-11-09T00:32:28;14.10;99.90
33739;DHT22;20063;51.730;11.110;2022-11-09T00:34:53;14.10;99.90
33739;DHT22;20063;51.730;11.110;2022-11-09T00:37:19;14.10;99.90
33739;DHT22;20063;51.730;11.110;2022-11-09T00:39:45;14.10;99.90
33739;DHT22;20063;51.730;11.110;2022-11-09T00:42:10;14.10;99.90
33739;DHT22;20063;51.730;11.110;2022-11-09T00:44:36;14.10;99.90
33739;DHT22;20063;51.730;11.110;2022-11-09T00:47:01;14.00;99.90
33739;DHT22;20063;51.730;11.110;2022-11-09T00:49:27;14.00;99.90
33739;DHT22;20063;51.730;11.110;2022-11-09T00:51:52;14.10;99.90
33739;DHT22;20063;51.730;11.110;2022-11-09T00:54:18;14.10;99.90
33739;DHT22;20063;51.730;11.110;2022-11-09T00:56:44;14.10;99.90
33739;DHT22;20063;51.730;11.110;2022-11-09T00:59:10;14.10;99.90
33739;DHT22;20063;51.730;11.110;2022-11-09T01:01:36;14.10;99.90
33739;DHT22;20063;51.730;11.110;2022-11-09T01:04:01;14.00;99.90
33739;DHT22;20063;51.730;11.110;2022-11-09T01:06:27;14.00;99.90
33739;DHT22;20063;51.730;11.110;2022-11-09T01:08:53;13.90;99.90
33739;DHT22;20063;51.730;11.110;2022-11-09T01:11:19;13.90;99.90
33739;DHT22;20063;51.730;11.110;2022-11-09T01:13:45;13.90;99.90
33739;DHT22;20063;51.730;11.110;2022-11-09T01:16:13;13.90;99.90
33739;DHT22;20063;51.730;11.110;2022-11-09T01:18:40;13.90;99.90
33739;DHT22;20063;51.730;11.110;2022-11-09T01:21:08;13.90;99.90
33739;DHT22;20063;51.730;11.110;2022-11-09T01:23:34;13.90;99.90
33739;DHT22;20063;51.730;11.110;2022-11-09T01:26:03;13.90;99.90
33739;DHT22;20063;51.730;11.110;2022-11-09T01:28:29;13.90;99.90
33739;DHT22;20063;51.730;11.110;2022-11-09T01:30:55;13.80;99.90
33739;DHT22;20063;51.730;11.110;2022-11-09T01:33:24;13.80;99.90
33739;DHT22;20063;51.730;11.110;2022-11-09T01:35:50;13.80;99.90
33739;DHT22;20063;51.730;11.110;2022-11-09T01:38:16;13.80;99.90
33739;DHT22;20063;51.730;11.110;2022-11-09T01:40:41;13.80;99.90
33739;DHT22;20063;51.730;11.110;2022-11-09T01:43:19;13.80;99.90
33739;DHT22;20063;51.730;11.110;2022-11-09T01:45:49;13.80;99.90
33739;DHT22;20063;51.730;11.110;2022-11-09T01:48:19;13.70;99.90
33739;DHT22;20063;51.730;11.110;2022-11-09T01:51:19;13.70;99.90
33739;DHT22;20063;51.730;11.110;2022-11-09T01:53:50;13.70;99.90
33739;DHT22;20063;51.730;11.110;2022-11-09T01:56:17;13.70;99.90
33739;DHT22;20063;51.730;11.110;2022-11-09T01:58:58;13.60;99.90
33739;DHT22;20063;51.730;11.110;2022-11-09T02:01:25;13.70;99.90
33739;DHT22;20063;51.730;11.110;2022-11-09T02:04:03;13.70;99.90
33739;DHT22;20063;51.730;11.110;2022-11-09T02:06:30;13.70;99.90
33739;DHT22;20063;51.730;11.110;2022-11-09T02:09:03;13.70;99.90
33739;DHT22;20063;51.730;11.110;2022-11-09T02:11:33;13.70;99.90
33739;DHT22;20063;51.730;11.110;2022-11-09T02:14:02;13.70;99.90
33739;DHT22;20063;51.730;11.110;2022-11-09T02:16:29;13.70;99.90
33739;DHT22;20063;51.730;11.110;2022-11-09T02:18:57;13.70;99.90
33739;DHT22;20063;51.730;11.110;2022-11-09T02:21:25;13.70;99.90
33739;DHT22;20063;51.730;11.110;2022-11-09T02:23:51;13.70;99.90
33739;DHT22;20063;51.730;11.110;2022-11-09T02:26:40;13.80;99.90
33739;DHT22;20063;51.730;11.110;2022-11-09T02:29:09;13.80;99.90
33739;DHT22;20063;51.730;11.110;2022-11-09T02:31:38;13.70;99.90
33739;DHT22;20063;51.730;11.110;2022-11-09T02:34:10;13.70;99.90
33739;DHT22;20063;51.730;11.110;2022-11-09T02:36:37;13.70;99.90
33739;DHT22;20063;51.730;11.110;2022-11-09T02:39:03;13.70;99.90
33739;DHT22;20063;51.730;11.110;2022-11-09T02:41:31;13.60;99.90
33739;DHT22;20063;51.730;11.110;2022-11-09T02:43:57;13.70;99.90
33739;DHT22;20063;51.730;11.110;2022-11-09T02:46:31;13.70;99.90
33739;DHT22;20063;51.730;11.110;2022-11-09T02:48:59;13.70;99.90
33739;DHT22;20063;51.730;11.110;2022-11-09T02:51:25;13.70;99.90
33739;DHT22;20063;51.730;11.110;2022-11-09T02:53:50;13.60;99.90
33739;DHT22;20063;51.730;11.110;2022-11-09T02:56:16;13.60;99.90
33739;DHT22;20063;51.730;11.110;2022-11-09T02:58:42;13.60;99.90
33739;DHT22;20063;51.730;11.110;2022-11-09T03:01:07;13.60;99.90
33739;DHT22;20063;51.730;11.110;2022-11-09T03:03:33;13.70;99.90
33739;DHT22;20063;51.730;11.110;2022-11-09T03:05:59;13.80;99.90
33739;DHT22;20063;51.730;11.110;2022-11-09T03:08:24;13.70;99.90
33739;DHT22;20063;51.730;11.110;2022-11-09T03:10:50;13.70;99.90
33739;DHT22;20063;51.730;11.110;2022-11-09T03:13:15;13.80;99.90
33739;DHT22;20063;51.730;11.110;2022-11-09T03:15:41;13.70;99.90
33739;DHT22;20063;51.730;11.110;2022-11-09T03:18:07;13.70;99.90
33739;DHT22;20063;51.730;11.110;2022-11-09T03:20:32;13.70;99.90
33739;DHT22;20063;51.730;11.110;2022-11-09T03:22:59;13.70;99.90
33739;DHT22;20063;51.730;11.110;2022-11-09T03:25:26;13.70;99.90
33739;DHT22;20063;51.730;11.110;2022-11-09T03:28:02;13.70;99.90
33739;DHT22;20063;51.730;11.110;2022-11-09T03:30:29;13.70;99.90
33739;DHT22;20063;51.730;11.110;2022-11-09T03:33:04;13.60;99.90
33739;DHT22;20063;51.730;11.110;2022-11-09T03:35:35;13.70;99.90
33739;DHT22;20063;51.730;11.110;2022-11-09T03:38:02;13.70;99.90
33739;DHT22;20063;51.730;11.110;2022-11-09T03:40:28;13.70;99.90
33739;DHT22;20063;51.730;11.110;2022-11-09T03:42:54;13.70;99.90
33739;DHT22;20063;51.730;11.110;2022-11-09T03:45:20;13.70;99.90
33739;DHT22;20063;51.730;11.110;2022-11-09T03:47:46;13.80;99.90
33739;DHT22;20063;51.730;11.110;2022-11-09T03:50:14;13.80;99.90
33739;DHT22;20063;51.730;11.110;2022-11-09T03:52:43;13.70;99.90
33739;DHT22;20063;51.730;11.110;2022-11-09T03:55:09;13.70;99.90
33739;DHT22;20063;51.730;11.110;2022-11-09T03:57:37;13.70;99.90
33739;DHT22;20063;51.730;11.110;2022-11-09T04:00:05;13.70;99.90
33739;DHT22;20063;51.730;11.110;2022-11-09T04:02:31;13.70;99.90
33739;DHT22;20063;51.730;11.110;2022-11-09T04:04:56;13.70;99.90
33739;DHT22;20063;51.730;11.110;2022-11-09T04:07:25;13.70;99.90
33739;DHT22;20063;51.730;11.110;2022-11-09T04:09:51;13.70;99.90
33739;DHT22;20063;51.730;11.110;2022-11-09T04:12:16;13.80;99.90
33739;DHT22;20063;51.730;11.110;2022-11-09T04:14:42;13.80;99.90
33739;DHT22;20063;51.730;11.110;2022-11-09T04:17:07;13.80;99.90
33739;DHT22;20063;51.730;11.110;2022-11-09T04:19:33;13.70;99.90
33739;DHT22;20063;51.730;11.110;2022-11-09T04:21:59;13.70;99.90
33739;DHT22;20063;51.730;11.110;2022-11-09T04:24:25;13.60;99.90
33739;DHT22;20063;51.730;11.110;2022-11-09T04:26:50;13.60;99.90
33739;DHT22;20063;51.730;11.110;2022-11-09T04:29:16;13.50;99.90
33739;DHT22;20063;51.730;11.110;2022-11-09T04:31:42;13.50;99.90
33739;DHT22;20063;51.730;11.110;2022-11-09T04:34:08;13.50;99.90
33739;DHT22;20063;51.730;11.110;2022-11-09T04:36:34;13.40;99.90
33739;DHT22;20063;51.730;11.110;2022-11-09T04:38:59;13.40;99.90
33739;DHT22;20063;51.730;11.110;2022-11-09T04:41:26;13.30;99.90
33739;DHT22;20063;51.730;11.110;2022-11-09T04:43:52;13.30;99.90
33739;DHT22;20063;51.730;11.110;2022-11-09T04:46:18;13.20;99.90
33739;DHT22;20063;51.730;11.110;2022-11-09T04:48:43;13.20;99.90
33739;DHT22;20063;51.730;11.110;2022-11-09T04:51:09;13.20;99.90
33739;DHT22;20063;51.730;11.110;2022-11-09T04:53:35;13.10;99.90
33739;DHT22;20063;51.730;11.110;2022-11-09T04:56:03;13.10;99.90
33739;DHT22;20063;51.730;11.110;2022-11-09T04:58:29;13.00;99.90
33739;DHT22;20063;51.730;11.110;2022-11-09T05:01:01;13.00;99.90
33739;DHT22;20063;51.730;11.110;2022-11-09T05:03:28;13.00;99.90
33739;DHT22;20063;51.730;11.110;2022-11-09T05:05:53;13.00;99.90
33739;DHT22;20063;51.730;11.110;2022-11-09T05:08:19;13.00;99.90
33739;DHT22;20063;51.730;11.110;2022-11-09T05:10:44;13.00;99.90
33739;DHT22;20063;51.730;11.110;2022-11-09T05:13:11;13.00;99.90
33739;DHT22;20063;51.730;11.110;2022-11-09T05:15:37;13.00;99.90
33739;DHT22;20063;51.730;11.110;2022-11-09T05:18:03;12.90;99.90
33739;DHT22;20063;51.730;11.110;2022-11-09T05:20:29;12.90;99.90
33739;DHT22;20063;51.730;11.110;2022-11-09T05:22:56;12.90;99.90
33739;DHT22;20063;51.730;11.110;2022-11-09T05:25:41;12.80;99.90
33739;DHT22;20063;51.730;11.110;2022-11-09T05:28:07;12.90;99.90
33739;DHT22;20063;51.730;11.110;2022-11-09T05:30:33;12.90;99.90
33739;DHT22;20063;51.730;11.110;2022-11-09T05:32:59;12.80;99.90
33739;DHT22;20063;51.730;11.110;2022-11-09T05:35:25;12.90;99.90
33739;DHT22;20063;51.730;11.110;2022-11-09T05:37:50;12.80;99.90
33739;DHT22;20063;51.730;11.110;2022-11-09T05:40:18;12.80;99.90
33739;DHT22;20063;51.730;11.110;2022-11-09T05:42:44;12.80;99.90
33739;DHT22;20063;51.730;11.110;2022-11-09T05:45:13;12.80;99.90
33739;DHT22;20063;51.730;11.110;2022-11-09T05:47:40;12.80;99.90
33739;DHT22;20063;51.730;11.110;2022-11-09T05:50:08;12.80;99.90
33739;DHT22;20063;51.730;11.110;2022-11-09T05:52:34;12.80;99.90
33739;DHT22;20063;51.730;11.110;2022-11-09T05:55:00;12.80;99.90
33739;DHT22;20063;51.730;11.110;2022-11-09T05:57:26;12.70;99.90
33739;DHT22;20063;51.730;11.110;2022-11-09T05:59:52;12.80;99.90
33739;DHT22;20063;51.730;11.110;2022-11-09T06:02:17;12.70;99.90
33739;DHT22;20063;51.730;11.110;2022-11-09T06:04:43;12.70;99.90
33739;DHT22;20063;51.730;11.110;2022-11-09T06:07:09;12.80;99.90
33739;DHT22;20063;51.730;11.110;2022-11-09T06:09:34;12.80;99.90
33739;DHT22;20063;51.730;11.110;2022-11-09T06:12:00;12.80;99.90
33739;DHT22;20063;51.730;11.110;2022-11-09T06:14:26;12.70;99.90
33739;DHT22;20063;51.730;11.110;2022-11-09T06:16:51;12.70;99.90
33739;DHT22;20063;51.730;11.110;2022-11-09T06:19:17;12.70;99.90
33739;DHT22;20063;51.730;11.110;2022-11-09T06:21:44;12.70;99.90
33739;DHT22;20063;51.730;11.110;2022-11-09T06:24:09;12.70;99.90
33739;DHT22;20063;51.730;11.110;2022-11-09T06:26:36;12.60;99.90
33739;DHT22;20063;51.730;11.110;2022-11-09T06:29:02;12.60;99.90
33739;DHT22;20063;51.730;11.110;2022-11-09T06:31:29;12.60;99.90
33739;DHT22;20063;51.730;11.110;2022-11-09T06:33:55;12.60;99.90
33739;DHT22;20063;51.730;11.110;2022-11-09T06:36:20;12.60;99.90
33739;DHT22;20063;51.730;11.110;2022-11-09T06:38:50;12.60;99.90
33739;DHT22;20063;51.730;11.110;2022-11-09T06:41:16;12.60;99.90
33739;DHT22;20063;51.730;11.110;2022-11-09T06:43:42;12.60;99.90
33739;DHT22;20063;51.730;11.110;2022-11-09T06:46:08;12.60;99.90
33739;DHT22;20063;51.730;11.110;2022-11-09T06:48:38;12.60;99.90
33739;DHT22;20063;51.730;11.110;2022-11-09T06:51:04;12.60;99.90
33739;DHT22;20063;51.730;11.110;2022-11-09T06:53:31;12.60;99.90
33739;DHT22;20063;51.730;11.110;2022-11-09T06:56:01;12.50;99.90
33739;DHT22;20063;51.730;11.110;2022-11-09T06:58:27;12.60;99.90
33739;DHT22;20063;51.730;11.110;2022-11-09T07:00:53;12.60;99.90
33739;DHT22;20063;51.730;11.110;2022-11-09T07:03:20;12.60;99.90
33739;DHT22;20063;51.730;11.110;2022-11-09T07:05:47;12.60;99.90
33739;DHT22;20063;51.730;11.110;2022-11-09T07:08:16;12.60;99.90
33739;DHT22;20063;51.730;11.110;2022-11-09T07:10:42;12.60;99.90
33739;DHT22;20063;51.730;11.110;2022-11-09T07:13:08;12.60;99.90
33739;DHT22;20063;51.730;11.110;2022-11-09T07:15:35;12.60;99.90
33739;DHT22;20063;51.730;11.110;2022-11-09T07:18:03;12.60;99.90
33739;DHT22;20063;51.730;11.110;2022-11-09T07:20:29;12.60;99.90
33739;DHT22;20063;51.730;11.110;2022-11-09T07:22:55;12.70;99.90
33739;DHT22;20063;51.730;11.110;2022-11-09T07:25:21;12.70;99.90
33739;DHT22;20063;51.730;11.110;2022-11-09T07:27:47;12.70;99.90
33739;DHT22;20063;51.730;11.110;2022-11-09T07:30:13;12.70;99.90
33739;DHT22;20063;51.730;11.110;2022-11-09T07:32:39;12.80;99.90
33739;DHT22;20063;51.730;11.110;2022-11-09T07:35:06;12.80;99.90
33739;DHT22;20063;51.730;11.110;2022-11-09T07:37:31;12.80;99.90
33739;DHT22;20063;51.730;11.110;2022-11-09T07:39:58;12.80;99.90
33739;DHT22;20063;51.730;11.110;2022-11-09T07:42:24;12.80;99.90
33739;DHT22;20063;51.730;11.110;2022-11-09T07:44:49;12.80;99.90
33739;DHT22;20063;51.730;11.110;2022-11-09T07:47:17;12.80;99.90
33739;DHT22;20063;51.730;11.110;2022-11-09T07:49:42;12.90;99.90
33739;DHT22;20063;51.730;11.110;2022-11-09T07:52:08;12.90;99.90
33739;DHT22;20063;51.730;11.110;2022-11-09T07:54:34;12.90;99.90
33739;DHT22;20063;51.730;11.110;2022-11-09T07:57:00;12.90;99.90
33739;DHT22;20063;51.730;11.110;2022-11-09T07:59:26;12.90;99.90
33739;DHT22;20063;51.730;11.110;2022-11-09T08:01:52;12.90;99.90
33739;DHT22;20063;51.730;11.110;2022-11-09T08:04:18;12.90;99.90
33739;DHT22;20063;51.730;11.110;2022-11-09T08:06:43;12.90;99.90
33739;DHT22;20063;51.730;11.110;2022-11-09T08:09:19;13.00;99.90
33739;DHT22;20063;51.730;11.110;2022-11-09T08:11:45;13.10;99.90
33739;DHT22;20063;51.730;11.110;2022-11-09T08:14:10;13.00;99.90
33739;DHT22;20063;51.730;11.110;2022-11-09T08:16:36;13.00;99.90
33739;DHT22;20063;51.730;11.110;2022-11-09T08:19:02;13.10;99.90
33739;DHT22;20063;51.730;11.110;2022-11-09T08:21:27;13.10;99.90
33739;DHT22;20063;51.730;11.110;2022-11-09T08:23:54;13.10;99.90
33739;DHT22;20063;51.730;11.110;2022-11-09T08:26:20;13.10;99.90
33739;DHT22;20063;51.730;11.110;2022-11-09T08:28:46;13.20;99.90
33739;DHT22;20063;51.730;11.110;2022-11-09T08:31:11;13.20;99.90
33739;DHT22;20063;51.730;11.110;2022-11-09T08:33:39;13.30;99.90
33739;DHT22;20063;51.730;11.110;2022-11-09T08:36:13;13.30;99.90
33739;DHT22;20063;51.730;11.110;2022-11-09T08:38:40;13.40;99.90
33739;DHT22;20063;51.730;11.110;2022-11-09T08:41:06;13.40;99.90
33739;DHT22;20063;51.730;11.110;2022-11-09T08:43:32;13.50;99.90
33739;DHT22;20063;51.730;11.110;2022-11-09T08:46:01;13.50;99.90
33739;DHT22;20063;51.730;11.110;2022-11-09T08:48:26;13.50;99.90
33739;DHT22;20063;51.730;11.110;2022-11-09T08:50:54;13.50;99.90
33739;DHT22;20063;51.730;11.110;2022-11-09T08:53:20;13.50;99.90
33739;DHT22;20063;51.730;11.110;2022-11-09T08:55:46;13.60;99.90
33739;DHT22;20063;51.730;11.110;2022-11-09T08:58:11;13.70;99.90
33739;DHT22;20063;51.730;11.110;2022-11-09T09:00:37;13.70;99.90
33739;DHT22;20063;51.730;11.110;2022-11-09T09:03:04;13.70;99.90
33739;DHT22;20063;51.730;11.110;2022-11-09T09:05:30;13.70;99.90
33739;DHT22;20063;51.730;11.110;2022-11-09T09:07:58;13.80;99.90
33739;DHT22;20063;51.730;11.110;2022-11-09T09:10:24;13.80;99.90
33739;DHT22;20063;51.730;11.110;2022-11-09T09:12:49;13.80;99.90
33739;DHT22;20063;51.730;11.110;2022-11-09T09:15:15;13.80;99.90
33739;DHT22;20063;51.730;11.110;2022-11-09T09:17:41;13.80;99.90
33739;DHT22;20063;51.730;11.110;2022-11-09T09:20:07;13.80;99.90
33739;DHT22;20063;51.730;11.110;2022-11-09T09:22:32;13.90;99.90
33739;DHT22;20063;51.730;11.110;2022-11-09T09:25:01;13.90;99.90
33739;DHT22;20063;51.730;11.110;2022-11-09T09:27:27;13.80;99.90
33739;DHT22;20063;51.730;11.110;2022-11-09T09:29:54;13.80;99.90
33739;DHT22;20063;51.730;11.110;2022-11-09T09:32:19;13.80;99.90
33739;DHT22;20063;51.730;11.110;2022-11-09T09:34:45;13.80;99.90
33739;DHT22;20063;51.730;11.110;2022-11-09T09:37:11;13.70;99.90
33739;DHT22;20063;51.730;11.110;2022-11-09T09:39:36;13.80;99.90
33739;DHT22;20063;51.730;11.110;2022-11-09T09:42:07;13.80;99.90
33739;DHT22;20063;51.730;11.110;2022-11-09T09:44:44;13.90;99.90
33739;DHT22;20063;51.730;11.110;2022-11-09T09:50:05;13.80;99.90
33739;DHT22;20063;51.730;11.110;2022-11-09T09:55:28;13.90;99.90
33739;DHT22;20063;51.730;11.110;2022-11-09T09:58:04;13.90;99.90
33739;DHT22;20063;51.730;11.110;2022-11-09T10:00:32;13.90;99.90
33739;DHT22;20063;51.730;11.110;2022-11-09T10:03:00;14.00;99.90
33739;DHT22;20063;51.730;11.110;2022-11-09T10:08:38;14.00;99.90
33739;DHT22;20063;51.730;11.110;2022-11-09T10:13:59;14.10;99.90
33739;DHT22;20063;51.730;11.110;2022-11-09T10:16:57;14.00;99.90
33739;DHT22;20063;51.730;11.110;2022-11-09T10:20:14;14.00;99.90
33739;DHT22;20063;51.730;11.110;2022-11-09T10:22:29;14.00;99.90
33739;DHT22;20063;51.730;11.110;2022-11-09T10:27:46;14.10;99.90
33739;DHT22;20063;51.730;11.110;2022-11-09T10:30:16;14.20;99.90
33739;DHT22;20063;51.730;11.110;2022-11-09T10:32:46;14.20;99.90
33739;DHT22;20063;51.730;11.110;2022-11-09T10:35:19;14.20;99.90
33739;DHT22;20063;51.730;11.110;2022-11-09T10:37:50;14.30;99.90
33739;DHT22;20063;51.730;11.110;2022-11-09T10:40:26;14.40;99.90
33739;DHT22;20063;51.730;11.110;2022-11-09T10:43:01;14.40;99.90
33739;DHT22;20063;51.730;11.110;2022-11-09T10:45:31;14.40;99.90
33739;DHT22;20063;51.730;11.110;2022-11-09T10:47:58;14.40;99.90
33739;DHT22;20063;51.730;11.110;2022-11-09T10:53:20;14.50;99.90
33739;DHT22;20063;51.730;11.110;2022-11-09T11:01:18;14.60;99.90
33739;DHT22;20063;51.730;11.110;2022-11-09T11:03:46;14.60;99.90
33739;DHT22;20063;51.730;11.110;2022-11-09T11:06:15;14.60;99.90
33739;DHT22;20063;51.730;11.110;2022-11-09T11:08:43;14.60;99.90
33739;DHT22;20063;51.730;11.110;2022-11-09T11:11:25;14.60;99.90
33739;DHT22;20063;51.730;11.110;2022-11-09T11:16:35;14.60;99.90
33739;DHT22;20063;51.730;11.110;2022-11-09T11:19:02;14.70;99.90
33739;DHT22;20063;51.730;11.110;2022-11-09T11:21:28;14.60;99.90
33739;DHT22;20063;51.730;11.110;2022-11-09T11:24:17;14.60;99.90
33739;DHT22;20063;51.730;11.110;2022-11-09T11:26:56;14.60;99.90
33739;DHT22;20063;51.730;11.110;2022-11-09T11:29:29;14.60;99.90
33739;DHT22;20063;51.730;11.110;2022-11-09T11:31:59;14.70;99.90
33739;DHT22;20063;51.730;11.110;2022-11-09T11:34:24;14.70;99.90
33739;DHT22;20063;51.730;11.110;2022-11-09T11:45:31;14.90;99.90
33739;DHT22;20063;51.730;11.110;2022-11-09T11:56:47;14.90;99.90
33739;DHT22;20063;51.730;11.110;2022-11-09T12:08:15;15.00;99.90
33739;DHT22;20063;51.730;11.110;2022-11-09T12:10:56;14.90;99.90
33739;DHT22;20063;51.730;11.110;2022-11-09T12:13:32;14.90;99.90
33739;DHT22;20063;51.730;11.110;2022-11-09T12:21:22;15.00;99.90
33739;DHT22;20063;51.730;11.110;2022-11-09T12:29:58;15.10;99.90
33739;DHT22;20063;51.730;11.110;2022-11-09T12:32:45;15.10;99.90
33739;DHT22;20063;51.730;11.110;2022-11-09T12:38:36;15.20;99.90
33739;DHT22;20063;51.730;11.110;2022-11-09T12:41:09;15.20;99.90
33739;DHT22;20063;51.730;11.110;2022-11-09T12:46:10;15.20;99.90
33739;DHT22;20063;51.730;11.110;2022-11-09T12:48:38;15.30;99.90
33739;DHT22;20063;51.730;11.110;2022-11-09T12:51:06;15.30;99.90
33739;DHT22;20063;51.730;11.110;2022-11-09T12:53:37;15.20;99.90
33739;DHT22;20063;51.730;11.110;2022-11-09T12:58:31;15.20;99.90
33739;DHT22;20063;51.730;11.110;2022-11-09T13:01:02;15.30;99.90
33739;DHT22;20063;51.730;11.110;2022-11-09T13:03:37;15.30;99.90
33739;DHT22;20063;51.730;11.110;2022-11-09T13:08:36;15.20;99.90
33739;DHT22;20063;51.730;11.110;2022-11-09T13:11:18;15.20;99.90
33739;DHT22;20063;51.730;11.110;2022-11-09T13:13:44;15.20;99.90
33739;DHT22;20063;51.730;11.110;2022-11-09T13:18:48;15.20;99.90
33739;DHT22;20063;51.730;11.110;2022-11-09T13:23:48;15.30;99.90
33739;DHT22;20063;51.730;11.110;2022-11-09T13:29:07;15.30;99.90
33739;DHT22;20063;51.730;11.110;2022-11-09T13:34:55;15.30;99.90
33739;DHT22;20063;51.730;11.110;2022-11-09T13:51:00;15.10;99.90
33739;DHT22;20063;51.730;11.110;2022-11-09T13:55:55;15.10;99.90
33739;DHT22;20063;51.730;11.110;2022-11-09T13:58:30;15.10;99.90
33739;DHT22;20063;51.730;11.110;2022-11-09T14:00:57;15.00;99.90
33739;DHT22;20063;51.730;11.110;2022-11-09T14:03:26;14.90;99.90
33739;DHT22;20063;51.730;11.110;2022-11-09T14:05:58;15.00;99.90
33739;DHT22;20063;51.730;11.110;2022-11-09T14:08:31;15.00;99.90
33739;DHT22;20063;51.730;11.110;2022-11-09T14:11:35;14.90;99.90
33739;DHT22;20063;51.730;11.110;2022-11-09T14:17:03;14.90;99.90
33739;DHT22;20063;51.730;11.110;2022-11-09T14:22:17;14.90;99.90
33739;DHT22;20063;51.730;11.110;2022-11-09T14:24:44;14.80;99.90
33739;DHT22;20063;51.730;11.110;2022-11-09T14:27:11;14.80;99.90
33739;DHT22;20063;51.730;11.110;2022-11-09T14:32:34;14.80;99.90
33739;DHT22;20063;51.730;11.110;2022-11-09T14:37:53;14.70;99.90
33739;DHT22;20063;51.730;11.110;2022-11-09T14:40:28;14.80;99.90
33739;DHT22;20063;51.730;11.110;2022-11-09T14:43:15;14.80;99.90
33739;DHT22;20063;51.730;11.110;2022-11-09T14:45:53;14.90;99.90
33739;DHT22;20063;51.730;11.110;2022-11-09T14:48:21;14.90;99.90
33739;DHT22;20063;51.730;11.110;2022-11-09T14:50:47;14.80;99.90
33739;DHT22;20063;51.730;11.110;2022-11-09T14:53:16;14.90;99.90
33739;DHT22;20063;51.730;11.110;2022-11-09T14:55:47;14.80;99.90
33739;DHT22;20063;51.730;11.110;2022-11-09T14:58:13;14.80;99.90
33739;DHT22;20063;51.730;11.110;2022-11-09T15:00:39;14.80;99.90
33739;DHT22;20063;51.730;11.110;2022-11-09T15:03:28;14.70;99.90
33739;DHT22;20063;51.730;11.110;2022-11-09T15:06:05;14.70;99.90
33739;DHT22;20063;51.730;11.110;2022-11-09T15:08:31;14.70;99.90
33739;DHT22;20063;51.730;11.110;2022-11-09T15:10:58;14.60;99.90
33739;DHT22;20063;51.730;11.110;2022-11-09T15:13:33;14.60;99.90
33739;DHT22;20063;51.730;11.110;2022-11-09T15:16:00;14.50;99.90
33739;DHT22;20063;51.730;11.110;2022-11-09T15:18:29;14.60;99.90
33739;DHT22;20063;51.730;11.110;2022-11-09T15:21:16;14.50;99.90
33739;DHT22;20063;51.730;11.110;2022-11-09T15:23:47;14.50;99.90
33739;DHT22;20063;51.730;11.110;2022-11-09T15:26:35;14.50;99.90
33739;DHT22;20063;51.730;11.110;2022-11-09T15:29:01;14.50;99.90
33739;DHT22;20063;51.730;11.110;2022-11-09T15:31:27;14.50;99.90
33739;DHT22;20063;51.730;11.110;2022-11-09T15:33:55;14.50;99.90
33739;DHT22;20063;51.730;11.110;2022-11-09T15:36:28;14.50;99.90
33739;DHT22;20063;51.730;11.110;2022-11-09T15:39:03;14.50;99.90
33739;DHT22;20063;51.730;11.110;2022-11-09T15:41:30;14.40;99.90
33739;DHT22;20063;51.730;11.110;2022-11-09T15:43:56;14.40;99.90
33739;DHT22;20063;51.730;11.110;2022-11-09T15:46:25;14.40;99.90
33739;DHT22;20063;51.730;11.110;2022-11-09T15:48:51;14.40;99.90
33739;DHT22;20063;51.730;11.110;2022-11-09T15:51:17;14.40;99.90
33739;DHT22;20063;51.730;11.110;2022-11-09T15:53:46;14.30;99.90
33739;DHT22;20063;51.730;11.110;2022-11-09T15:56:18;14.20;99.90
33739;DHT22;20063;51.730;11.110;2022-11-09T15:58:45;14.20;99.90
33739;DHT22;20063;51.730;11.110;2022-11-09T16:01:12;14.20;99.90
33739;DHT22;20063;51.730;11.110;2022-11-09T16:03:38;14.30;99.90
33739;DHT22;20063;51.730;11.110;2022-11-09T16:06:04;14.20;99.90
33739;DHT22;20063;51.730;11.110;2022-11-09T16:08:29;14.20;99.90
33739;DHT22;20063;51.730;11.110;2022-11-09T16:10:55;14.10;99.90
33739;DHT22;20063;51.730;11.110;2022-11-09T16:13:21;14.20;99.90
33739;DHT22;20063;51.730;11.110;2022-11-09T16:15:46;14.20;99.90
33739;DHT22;20063;51.730;11.110;2022-11-09T16:18:12;14.20;99.90
33739;DHT22;20063;51.730;11.110;2022-11-09T16:20:37;14.20;99.90
33739;DHT22;20063;51.730;11.110;2022-11-09T16:23:04;14.10;99.90
33739;DHT22;20063;51.730;11.110;2022-11-09T16:25:30;14.00;99.90
33739;DHT22;20063;51.730;11.110;2022-11-09T16:27:58;14.00;99.90
33739;DHT22;20063;51.730;11.110;2022-11-09T16:30:24;14.00;99.90
33739;DHT22;20063;51.730;11.110;2022-11-09T16:32:50;14.00;99.90
33739;DHT22;20063;51.730;11.110;2022-11-09T16:35:15;14.00;99.90
33739;DHT22;20063;51.730;11.110;2022-11-09T16:37:41;13.90;99.90
33739;DHT22;20063;51.730;11.110;2022-11-09T16:40:11;13.90;99.90
33739;DHT22;20063;51.730;11.110;2022-11-09T16:42:38;13.90;99.90
33739;DHT22;20063;51.730;11.110;2022-11-09T16:45:10;13.90;99.90
33739;DHT22;20063;51.730;11.110;2022-11-09T16:47:43;13.90;99.90
33739;DHT22;20063;51.730;11.110;2022-11-09T16:50:10;13.90;99.90
33739;DHT22;20063;51.730;11.110;2022-11-09T16:52:35;13.80;99.90
33739;DHT22;20063;51.730;11.110;2022-11-09T16:55:01;13.80;99.90
33739;DHT22;20063;51.730;11.110;2022-11-09T16:57:27;13.80;99.90
33739;DHT22;20063;51.730;11.110;2022-11-09T16:59:52;13.80;99.90
33739;DHT22;20063;51.730;11.110;2022-11-09T17:02:18;13.70;99.90
33739;DHT22;20063;51.730;11.110;2022-11-09T17:04:43;13.70;99.90
33739;DHT22;20063;51.730;11.110;2022-11-09T17:07:12;13.70;99.90
33739;DHT22;20063;51.730;11.110;2022-11-09T17:09:37;13.70;99.90
33739;DHT22;20063;51.730;11.110;2022-11-09T17:12:03;13.70;99.90
33739;DHT22;20063;51.730;11.110;2022-11-09T17:14:30;13.70;99.90